Time;durP1;ratioP1;P1;durP2;ratioP2;P2;SDS_P1;SDS_P2;PMS_P1;PMS_P2;Temp;Humidity;BMP_temperature;BMP_pressure;BME280_temperature;BME280_humidity;BME280_pressure;Samples;Min_cycle;Max_cycle;Signal;HPM_P1;HPM_P2
2023/08/29 00:04:09;;;;;;;1.03;1.00;;;16.10;49.70;;;;;;10451391;28;20294;-76
2023/08/29 00:09:12;;;;;;;1.10;1.10;;;16.10;49.70;;;;;;10450858;28;20582;-75
2023/08/29 00:14:15;;;;;;;1.20;1.20;;;16.00;49.50;;;;;;10451575;28;20239;-76
2023/08/29 00:19:21;;;;;;;1.37;1.27;;;16.00;49.80;;;;;;10450444;28;20998;-76
2023/08/29 00:24:28;;;;;;;1.20;1.20;;;15.90;49.90;;;;;;10450286;28;20267;-76
2023/08/29 00:29:32;;;;;;;1.10;1.10;;;15.80;50.10;;;;;;10450263;28;20229;-76
2023/08/29 00:34:36;;;;;;;1.20;1.20;;;15.80;50.00;;;;;;10449693;28;20231;-75
2023/08/29 00:39:44;;;;;;;1.33;1.23;;;15.70;50.30;;;;;;10450143;28;20732;-76
2023/08/29 00:44:48;;;;;;;1.60;1.40;;;15.60;50.20;;;;;;10449797;28;20328;-76
2023/08/29 00:49:53;;;;;;;2.00;1.40;;;15.60;50.60;;;;;;10448968;28;20237;-76
2023/08/29 00:54:56;;;;;;;1.27;1.27;;;15.50;50.70;;;;;;10448450;28;20367;-76
2023/08/29 00:59:59;;;;;;;1.43;1.20;;;15.60;50.80;;;;;;10448799;28;20231;-76
2023/08/29 01:05:05;;;;;;;1.80;1.70;;;15.50;50.70;;;;;;10448644;28;20300;-76
2023/08/29 01:10:09;;;;;;;1.60;1.50;;;15.50;51.20;;;;;;10448326;28;20229;-76
2023/08/29 01:15:20;;;;;;;1.60;1.50;;;15.40;50.90;;;;;;10448204;28;20764;-76
2023/08/29 01:20:27;;;;;;;1.47;1.37;;;15.30;51.40;;;;;;10448007;28;20873;-76
2023/08/29 01:25:38;;;;;;;1.70;1.47;;;15.30;51.60;;;;;;10447830;28;20236;-76
2023/08/29 01:30:45;;;;;;;1.50;1.40;;;15.30;52.00;;;;;;10448207;28;20236;-76
2023/08/29 01:35:49;;;;;;;1.30;1.30;;;15.30;52.00;;;;;;10447943;28;20232;-76
2023/08/29 01:40:53;;;;;;;1.67;1.60;;;15.30;52.00;;;;;;10447809;28;20720;-76
2023/08/29 01:45:57;;;;;;;1.70;1.60;;;15.30;51.70;;;;;;10446911;28;20225;-76
2023/08/29 01:51:01;;;;;;;1.90;1.80;;;15.20;52.00;;;;;;10446057;28;20598;-76
2023/08/29 01:56:04;;;;;;;1.30;1.20;;;15.30;51.90;;;;;;10445770;28;20237;-76
2023/08/29 02:01:09;;;;;;;1.60;1.50;;;15.20;51.90;;;;;;10446396;28;20224;-76
2023/08/29 02:06:19;;;;;;;1.27;1.27;;;15.20;52.30;;;;;;10445701;28;20743;-75
2023/08/29 02:11:23;;;;;;;1.50;1.50;;;15.30;52.20;;;;;;10445793;28;20228;-75
2023/08/29 02:16:28;;;;;;;1.30;1.30;;;15.30;52.20;;;;;;10444637;28;20249;-76
2023/08/29 02:21:31;;;;;;;1.53;1.43;;;15.30;52.40;;;;;;10445471;28;20233;-76
2023/08/29 02:26:34;;;;;;;1.43;1.37;;;15.30;52.20;;;;;;10445038;28;20734;-75
2023/08/29 02:31:39;;;;;;;1.50;1.50;;;15.30;52.00;;;;;;10444850;28;20217;-76
2023/08/29 02:36:42;;;;;;;1.37;1.33;;;15.30;52.50;;;;;;10444943;28;20320;-75
2023/08/29 02:41:45;;;;;;;1.50;1.40;;;15.30;52.20;;;;;;10444930;28;20220;-76
2023/08/29 02:46:50;;;;;;;1.03;1.03;;;15.30;52.40;;;;;;10444607;28;20235;-76
2023/08/29 02:51:53;;;;;;;1.30;1.20;;;15.30;52.70;;;;;;10444832;28;20601;-76
2023/08/29 02:56:57;;;;;;;1.40;1.30;;;15.30;52.50;;;;;;10443915;28;20237;-76
2023/08/29 03:02:03;;;;;;;1.40;1.40;;;15.20;52.60;;;;;;10442889;28;20231;-76
2023/08/29 03:07:06;;;;;;;1.30;1.30;;;15.20;53.00;;;;;;10443686;28;20741;-76
2023/08/29 03:12:09;;;;;;;1.00;1.00;;;15.20;52.80;;;;;;10444164;28;20727;-76
2023/08/29 03:17:14;;;;;;;1.50;1.40;;;15.20;52.90;;;;;;10446910;28;20231;-76
2023/08/29 03:22:17;;;;;;;1.30;1.30;;;15.30;53.20;;;;;;10452643;28;20229;-76
2023/08/29 03:27:20;;;;;;;1.23;1.07;;;15.30;53.00;;;;;;10452377;28;20233;-76
2023/08/29 03:32:25;;;;;;;1.50;1.40;;;15.20;52.80;;;;;;10451917;28;20224;-76
2023/08/29 03:37:28;;;;;;;1.30;1.20;;;15.20;53.30;;;;;;10451514;28;20220;-76
2023/08/29 03:42:31;;;;;;;1.73;1.30;;;15.20;53.00;;;;;;10451587;28;20316;-76
2023/08/29 03:47:39;;;;;;;1.03;1.03;;;15.20;53.20;;;;;;10451165;28;20250;-76
2023/08/29 03:52:42;;;;;;;1.20;1.20;;;15.20;53.90;;;;;;10451869;28;20232;-76
2023/08/29 03:57:45;;;;;;;1.20;1.20;;;15.20;53.20;;;;;;10451490;28;20232;-76
2023/08/29 04:02:50;;;;;;;1.10;1.10;;;15.20;53.30;;;;;;10448328;28;20317;-76
2023/08/29 04:07:54;;;;;;;1.30;1.30;;;15.20;53.70;;;;;;10444088;28;20908;-77
2023/08/29 04:12:57;;;;;;;1.20;1.20;;;15.30;53.40;;;;;;10449851;28;20273;-76
2023/08/29 04:18:02;;;;;;;1.30;1.20;;;15.30;53.30;;;;;;10447868;28;20319;-75
2023/08/29 04:23:07;;;;;;;1.60;1.50;;;15.30;53.40;;;;;;10428788;28;20237;-75
2023/08/29 04:28:11;;;;;;;1.60;1.50;;;15.40;53.10;;;;;;10431475;28;20658;-75
2023/08/29 04:33:16;;;;;;;1.40;1.30;;;15.40;53.10;;;;;;10426602;28;20230;-76
2023/08/29 04:38:19;;;;;;;1.57;1.47;;;15.40;53.50;;;;;;10439349;28;20587;-75
2023/08/29 04:43:22;;;;;;;1.30;1.30;;;15.40;53.20;;;;;;10429248;28;20254;-76
2023/08/29 04:48:27;;;;;;;1.60;1.50;;;15.40;53.70;;;;;;10420850;28;20230;-75
2023/08/29 04:53:30;;;;;;;1.77;1.50;;;15.50;54.30;;;;;;10422143;28;20271;-75
2023/08/29 04:58:33;;;;;;;1.80;1.70;;;15.50;53.80;;;;;;10426502;28;20243;-75
2023/08/29 05:03:38;;;;;;;1.47;1.37;;;15.60;53.40;;;;;;10427685;28;20231;-76
2023/08/29 05:08:41;;;;;;;1.50;1.40;;;15.60;53.90;;;;;;10423985;28;20263;-75
2023/08/29 05:13:45;;;;;;;1.47;1.37;;;15.70;53.50;;;;;;10445524;28;20737;-76
2023/08/29 05:18:49;;;;;;;1.43;1.20;;;15.70;53.40;;;;;;10435465;28;20235;-75
2023/08/29 05:23:54;;;;;;;1.30;1.30;;;15.70;53.70;;;;;;10436449;28;20309;-76
2023/08/29 05:28:57;;;;;;;1.30;1.30;;;15.80;53.80;;;;;;10438254;28;20224;-75
2023/08/29 05:34:01;;;;;;;1.60;1.50;;;15.80;53.60;;;;;;10435978;28;20224;-75
2023/08/29 05:39:05;;;;;;;1.50;1.50;;;15.90;53.70;;;;;;10435782;28;20325;-75
2023/08/29 05:44:08;;;;;;;1.23;1.23;;;16.00;53.40;;;;;;10438454;28;20603;-75
2023/08/29 05:49:13;;;;;;;1.57;1.50;;;16.00;53.40;;;;;;10441688;28;20762;-75
2023/08/29 05:54:16;;;;;;;1.50;1.40;;;16.10;53.10;;;;;;10431531;28;20304;-76
2023/08/29 05:59:19;;;;;;;1.23;1.23;;;16.10;52.90;;;;;;10435623;28;20225;-75
2023/08/29 06:04:24;;;;;;;1.40;1.40;;;16.10;53.10;;;;;;10434877;28;20229;-75
2023/08/29 06:09:27;;;;;;;1.40;1.40;;;16.10;53.60;;;;;;10434722;28;20229;-75
2023/08/29 06:14:30;;;;;;;1.40;1.40;;;16.20;53.20;;;;;;10437863;28;20295;-76
2023/08/29 06:19:35;;;;;;;1.33;1.23;;;16.20;53.10;;;;;;10431387;28;20229;-75
2023/08/29 06:24:38;;;;;;;1.10;1.10;;;16.30;53.40;;;;;;10440864;28;20228;-75
2023/08/29 06:29:41;;;;;;;1.30;1.23;;;16.30;52.90;;;;;;10435507;28;20232;-75
2023/08/29 06:34:46;;;;;;;1.10;1.10;;;16.40;52.90;;;;;;10436595;28;20213;-76
2023/08/29 06:39:49;;;;;;;1.13;1.13;;;16.40;52.80;;;;;;10438527;28;20225;-76
2023/08/29 06:44:57;;;;;;;1.13;1.13;;;16.40;52.70;;;;;;10434706;28;20223;-76
2023/08/29 06:50:01;;;;;;;1.10;1.10;;;16.40;52.60;;;;;;10436996;28;20233;-75
2023/08/29 06:55:05;;;;;;;1.40;1.30;;;16.40;52.60;;;;;;10440155;28;20288;-75
2023/08/29 07:00:11;;;;;;;1.40;1.30;;;16.30;52.70;;;;;;10446578;28;20267;-75
2023/08/29 07:05:16;;;;;;;1.40;1.30;;;16.30;53.00;;;;;;10441223;28;20233;-75
2023/08/29 07:10:19;;;;;;;1.10;1.10;;;16.40;52.90;;;;;;10433174;28;20321;-75
2023/08/29 07:15:23;;;;;;;1.10;1.10;;;16.30;52.80;;;;;;10440056;28;20225;-76
2023/08/29 07:20:28;;;;;;;1.17;1.17;;;16.30;52.90;;;;;;10441052;28;20241;-75
2023/08/29 07:25:39;;;;;;;1.20;1.20;;;16.30;53.30;;;;;;10449309;28;20235;-75
2023/08/29 07:30:45;;;;;;;1.30;1.20;;;16.40;53.80;;;;;;10438114;28;20232;-75
2023/08/29 07:35:54;;;;;;;1.23;1.23;;;16.40;53.30;;;;;;10452380;28;20225;-77
2023/08/29 07:40:57;;;;;;;1.20;1.20;;;16.40;53.60;;;;;;10448083;28;21068;-77
2023/08/29 07:46:01;;;;;;;1.10;1.10;;;16.40;54.60;;;;;;10442840;28;20232;-76
2023/08/29 07:51:09;;;;;;;1.47;1.40;;;16.50;54.60;;;;;;10442483;28;20805;-76
2023/08/29 07:56:15;;;;;;;1.10;1.10;;;16.50;56.10;;;;;;10441569;28;20276;-75
2023/08/29 08:01:18;;;;;;;0.83;0.83;;;16.70;55.70;;;;;;10443775;28;20229;-75
2023/08/29 08:06:23;;;;;;;4.33;3.93;;;16.90;55.20;;;;;;10442460;28;20293;-75
2023/08/29 08:11:26;;;;;;;3.77;3.30;;;17.00;55.60;;;;;;10441515;28;20737;-76
2023/08/29 08:16:29;;;;;;;2.83;2.63;;;17.10;55.40;;;;;;10441581;28;20244;-76
2023/08/29 08:21:34;;;;;;;1.63;1.37;;;17.20;55.30;;;;;;10442358;28;20281;-76
2023/08/29 08:26:38;;;;;;;1.03;1.03;;;17.30;54.20;;;;;;10438786;28;20308;-75
2023/08/29 08:31:41;;;;;;;0.80;0.80;;;17.30;53.00;;;;;;10407909;28;20302;-76
2023/08/29 08:36:46;;;;;;;1.00;1.00;;;17.20;52.30;;;;;;10417511;28;20237;-75
2023/08/29 08:41:50;;;;;;;0.90;0.90;;;17.10;52.90;;;;;;10445396;28;20267;-75
2023/08/29 08:46:53;;;;;;;0.80;0.80;;;17.00;53.60;;;;;;10431684;28;20233;-77
2023/08/29 08:51:59;;;;;;;1.00;1.00;;;16.90;53.80;;;;;;10427874;28;20308;-75
2023/08/29 08:57:03;;;;;;;1.13;1.00;;;16.90;53.80;;;;;;10407526;28;20229;-76
2023/08/29 09:02:11;;;;;;;0.90;0.90;;;16.90;53.90;;;;;;10438371;28;20231;-76
2023/08/29 09:07:16;;;;;;;0.80;0.80;;;16.80;54.60;;;;;;10446703;28;20259;-76
2023/08/29 09:12:19;;;;;;;0.90;0.90;;;16.80;54.50;;;;;;10441049;28;20332;-75
2023/08/29 09:17:24;;;;;;;0.93;0.90;;;16.80;54.20;;;;;;10418189;28;20243;-75
2023/08/29 09:22:29;;;;;;;0.90;0.90;;;16.80;54.00;;;;;;10415378;28;20278;-73
2023/08/29 09:27:40;;;;;;;0.87;0.87;;;16.80;54.10;;;;;;10437179;28;20252;-76
2023/08/29 09:32:44;;;;;;;0.90;0.90;;;16.80;54.50;;;;;;10429291;28;20229;-76
2023/08/29 09:37:54;;;;;;;0.87;0.87;;;16.80;54.50;;;;;;10441450;28;20602;-76
2023/08/29 09:43:00;;;;;;;0.93;0.90;;;16.90;54.20;;;;;;10421093;28;20270;-77
2023/08/29 09:48:06;;;;;;;0.80;0.80;;;16.80;54.80;;;;;;10438593;28;20227;-78
2023/08/29 09:53:16;;;;;;;1.20;1.10;;;16.90;54.40;;;;;;10435200;28;20233;-77
2023/08/29 09:58:23;;;;;;;0.90;0.90;;;16.90;54.70;;;;;;10438352;28;20331;-77
2023/08/29 10:03:27;;;;;;;1.00;1.00;;;16.90;55.00;;;;;;10440288;28;20237;-76
2023/08/29 10:08:39;;;;;;;0.90;0.90;;;17.00;54.50;;;;;;10431556;28;20225;-76
2023/08/29 10:13:44;;;;;;;0.90;0.90;;;17.00;54.60;;;;;;10434447;28;20224;-77
2023/08/29 10:18:49;;;;;;;0.90;0.90;;;17.00;54.10;;;;;;10441654;28;20237;-78
2023/08/29 10:23:55;;;;;;;0.80;0.80;;;17.00;54.10;;;;;;10440799;28;20248;-77
2023/08/29 10:28:59;;;;;;;0.80;0.80;;;17.00;55.10;;;;;;10431632;28;20235;-76
2023/08/29 10:34:04;;;;;;;0.80;0.80;;;17.00;54.30;;;;;;10438275;28;20599;-76
2023/08/29 10:39:15;;;;;;;0.83;0.83;;;17.00;55.00;;;;;;10432157;28;20732;-76
2023/08/29 10:44:36;;;;;;;0.60;0.60;;;17.10;55.60;;;;;;10429995;28;20228;-76
2023/08/29 10:49:42;;;;;;;0.60;0.60;;;17.10;55.00;;;;;;10424053;28;20256;-76
2023/08/29 10:54:47;;;;;;;0.80;0.60;;;17.20;55.00;;;;;;10432612;28;20231;-77
2023/08/29 10:59:52;;;;;;;0.60;0.60;;;17.20;54.60;;;;;;10439472;28;20316;-76
2023/08/29 11:05:12;;;;;;;0.77;0.77;;;17.30;54.50;;;;;;10432916;28;20217;-77
2023/08/29 11:10:20;;;;;;;0.70;0.70;;;17.30;55.10;;;;;;10427992;28;20316;-77
2023/08/29 11:16:09;;;;;;;0.70;0.70;;;17.40;55.80;;;;;;10425740;28;20232;-77
2023/08/29 11:21:12;;;;;;;0.70;0.70;;;17.50;56.00;;;;;;10428059;28;20228;-78
2023/08/29 11:26:17;;;;;;;0.80;0.80;;;17.60;54.90;;;;;;10435430;28;20229;-75
2023/08/29 11:31:20;;;;;;;0.70;0.70;;;17.70;55.10;;;;;;10428930;28;21043;-76
2023/08/29 11:36:31;;;;;;;0.70;0.70;;;17.80;55.00;;;;;;10423615;28;20340;-77
2023/08/29 11:41:36;;;;;;;0.80;0.80;;;17.80;53.80;;;;;;10435537;28;20227;-75
2023/08/29 11:46:59;;;;;;;0.80;0.80;;;17.80;53.60;;;;;;10443972;28;20222;-75
2023/08/29 11:52:03;;;;;;;0.93;0.90;;;17.80;52.80;;;;;;10440087;28;20872;-75
2023/08/29 11:57:10;;;;;;;0.87;0.87;;;17.70;53.10;;;;;;10443551;28;20227;-76
2023/08/29 12:02:16;;;;;;;1.10;1.10;;;17.60;53.60;;;;;;10437065;28;20578;-76
2023/08/29 12:07:22;;;;;;;1.07;1.07;;;17.60;54.00;;;;;;10431845;28;20232;-76
2023/08/29 12:12:32;;;;;;;1.13;1.03;;;17.60;54.40;;;;;;10430782;28;20224;-76
2023/08/29 12:17:38;;;;;;;1.20;1.10;;;17.70;55.80;;;;;;10424664;28;20252;-76
2023/08/29 12:22:47;;;;;;;1.10;1.10;;;17.80;55.30;;;;;;10432812;28;20233;-76
2023/08/29 12:27:52;;;;;;;0.90;0.90;;;17.90;55.00;;;;;;10436547;28;20316;-75
2023/08/29 12:32:55;;;;;;;1.10;1.10;;;18.00;54.70;;;;;;10446060;28;20302;-76
2023/08/29 12:37:58;;;;;;;1.20;1.20;;;18.10;54.00;;;;;;10419662;28;20705;-76
2023/08/29 12:43:04;;;;;;;1.20;1.10;;;18.20;53.50;;;;;;10430183;28;20838;-76
2023/08/29 12:48:07;;;;;;;1.20;1.20;;;18.20;53.40;;;;;;10441945;28;20252;-76
2023/08/29 12:53:11;;;;;;;1.10;1.10;;;18.20;53.60;;;;;;10426437;28;20347;-75
2023/08/29 12:58:17;;;;;;;1.30;1.30;;;18.20;53.90;;;;;;10434866;28;20236;-76
2023/08/29 13:03:20;;;;;;;1.13;1.10;;;18.20;54.10;;;;;;10443209;28;20244;-75
2023/08/29 13:08:24;;;;;;;1.30;1.20;;;18.30;53.70;;;;;;10457329;22;20282;-70
2023/08/29 13:13:28;;;;;;;1.33;1.03;;;18.30;53.90;;;;;;10460753;28;20629;-70
2023/08/29 13:18:32;;;;;;;1.00;1.00;;;18.40;53.70;;;;;;10452443;28;21459;-70
2023/08/29 13:23:35;;;;;;;1.60;1.13;;;18.40;53.20;;;;;;10456229;28;20311;-70
2023/08/29 13:28:40;;;;;;;1.57;1.07;;;18.40;53.10;;;;;;10453206;28;20225;-70
2023/08/29 13:33:45;;;;;;;1.57;0.90;;;18.30;53.20;;;;;;10456311;28;20227;-70
2023/08/29 13:38:48;;;;;;;1.13;1.13;;;18.30;53.70;;;;;;10453401;28;20235;-70
2023/08/29 13:43:54;;;;;;;1.30;1.10;;;18.30;54.20;;;;;;10453883;28;20216;-70
2023/08/29 13:48:57;;;;;;;1.10;1.10;;;18.40;54.10;;;;;;10454534;28;20232;-70
2023/08/29 13:54:00;;;;;;;1.20;1.20;;;18.40;54.90;;;;;;10456625;28;20310;-73
2023/08/29 13:59:05;;;;;;;0.87;0.87;;;18.50;53.60;;;;;;10456647;28;20311;-70
2023/08/29 14:04:08;;;;;;;0.90;0.90;;;18.50;52.60;;;;;;10456876;28;20319;-69
2023/08/29 14:09:11;;;;;;;0.80;0.80;;;18.40;52.40;;;;;;10453830;28;20254;-70
2023/08/29 14:14:17;;;;;;;0.97;0.97;;;18.30;53.00;;;;;;10453193;28;20577;-70
2023/08/29 14:19:21;;;;;;;0.90;0.90;;;18.10;52.80;;;;;;10453232;28;20237;-70
2023/08/29 14:24:24;;;;;;;0.83;0.83;;;18.00;53.10;;;;;;10457112;28;20289;-70
2023/08/29 14:29:31;;;;;;;0.90;0.90;;;18.00;53.50;;;;;;10455976;28;20305;-70
2023/08/29 14:34:34;;;;;;;1.43;1.10;;;18.00;54.10;;;;;;10451971;28;20224;-74
2023/08/29 14:39:37;;;;;;;1.40;1.20;;;18.00;54.00;;;;;;10454012;28;20232;-73
2023/08/29 14:44:42;;;;;;;1.30;1.30;;;18.10;54.60;;;;;;10458255;28;20310;-71
2023/08/29 14:49:45;;;;;;;1.10;1.10;;;18.10;54.40;;;;;;10451468;28;20250;-70
2023/08/29 14:54:50;;;;;;;1.07;1.07;;;18.20;54.00;;;;;;10450109;28;20220;-69
2023/08/29 14:59:57;;;;;;;1.13;1.13;;;18.20;53.80;;;;;;10455871;28;20228;-69
2023/08/29 15:05:00;;;;;;;1.10;1.10;;;18.20;53.90;;;;;;10457087;28;20541;-69
2023/08/29 15:10:04;;;;;;;0.97;0.97;;;18.10;53.70;;;;;;10455110;28;20220;-70
2023/08/29 15:15:09;;;;;;;1.17;1.07;;;18.20;53.80;;;;;;10466329;28;20389;-69
2023/08/29 15:20:13;;;;;;;1.10;1.10;;;18.20;54.10;;;;;;10462060;28;20322;-70
2023/08/29 15:25:16;;;;;;;1.10;1.10;;;18.10;53.80;;;;;;10464136;28;20747;-69
2023/08/29 15:30:21;;;;;;;1.30;1.30;;;18.10;53.90;;;;;;10462638;28;20228;-70
2023/08/29 15:35:24;;;;;;;1.20;1.10;;;18.10;54.00;;;;;;10462283;28;20221;-70
2023/08/29 15:40:27;;;;;;;1.00;1.00;;;18.00;53.60;;;;;;10463166;28;20229;-69
2023/08/29 15:45:36;;;;;;;2.43;1.10;;;18.00;53.70;;;;;;10461406;28;20653;-70
2023/08/29 15:50:39;;;;;;;1.30;0.90;;;17.90;53.40;;;;;;10458080;28;20239;-69
2023/08/29 15:55:43;;;;;;;0.77;0.77;;;17.70;53.60;;;;;;10461475;28;20712;-69
2023/08/29 16:00:47;;;;;;;0.80;0.80;;;17.60;53.60;;;;;;10458724;28;20283;-70
2023/08/29 16:05:51;;;;;;;0.70;0.70;;;17.60;53.40;;;;;;10462274;28;20225;-69
2023/08/29 16:10:54;;;;;;;1.00;1.00;;;17.50;53.30;;;;;;10458977;28;20244;-69
2023/08/29 16:15:59;;;;;;;1.30;1.20;;;17.50;53.30;;;;;;10458608;28;20243;-70
2023/08/29 16:21:03;;;;;;;1.93;1.33;;;17.40;53.00;;;;;;10455972;28;20229;-71
2023/08/29 16:26:13;;;;;;;1.20;1.10;;;17.40;53.40;;;;;;10455325;28;20343;-69
2023/08/29 16:31:18;;;;;;;2.07;1.40;;;17.40;53.80;;;;;;10459348;28;20248;-70
2023/08/29 16:36:21;;;;;;;1.40;1.30;;;17.40;54.40;;;;;;10462368;28;20224;-70
2023/08/29 16:41:24;;;;;;;1.27;1.27;;;17.50;54.20;;;;;;10458802;28;20228;-70
2023/08/29 16:46:29;;;;;;;1.50;1.40;;;17.50;54.40;;;;;;10459431;28;20607;-70
2023/08/29 16:51:33;;;;;;;1.40;1.40;;;17.50;54.70;;;;;;10460147;28;20235;-69
2023/08/29 16:56:36;;;;;;;1.57;1.20;;;17.60;54.40;;;;;;10459784;28;20229;-70
2023/08/29 17:01:40;;;;;;;1.83;1.60;;;17.60;55.30;;;;;;10458852;28;20693;-70
2023/08/29 17:06:44;;;;;;;1.50;1.40;;;17.60;54.60;;;;;;10451637;28;20256;-69
2023/08/29 17:11:47;;;;;;;1.30;1.20;;;17.60;54.10;;;;;;10454709;28;20330;-70
2023/08/29 17:16:52;;;;;;;1.40;1.30;;;17.60;54.10;;;;;;10460748;28;20243;-70
2023/08/29 17:21:55;;;;;;;2.17;1.37;;;17.60;54.50;;;;;;10456112;28;20581;-70
2023/08/29 17:26:58;;;;;;;1.20;1.20;;;17.60;53.90;;;;;;10457667;28;20221;-69
2023/08/29 17:32:03;;;;;;;2.67;1.23;;;17.60;53.80;;;;;;10458091;28;20230;-69
2023/08/29 17:37:06;;;;;;;1.30;1.20;;;17.60;53.90;;;;;;10456095;28;20310;-69
2023/08/29 17:42:09;;;;;;;1.60;1.50;;;17.70;54.00;;;;;;10459040;28;20734;-70
2023/08/29 17:47:15;;;;;;;2.60;1.27;;;17.70;53.90;;;;;;10455869;28;20237;-69
2023/08/29 17:52:18;;;;;;;2.73;1.47;;;17.70;53.90;;;;;;10457943;28;20684;-70
2023/08/29 17:57:22;;;;;;;1.50;1.40;;;17.70;53.70;;;;;;10462331;28;20311;-70
2023/08/29 18:02:26;;;;;;;1.83;1.50;;;17.60;53.70;;;;;;10455898;28;20239;-70
2023/08/29 18:07:30;;;;;;;1.43;1.33;;;17.60;53.60;;;;;;10458682;28;20232;-69
2023/08/29 18:12:33;;;;;;;1.97;1.50;;;17.60;53.70;;;;;;10453390;28;20263;-70
2023/08/29 18:17:38;;;;;;;1.80;1.70;;;17.70;53.70;;;;;;10457983;28;20232;-69
2023/08/29 18:22:41;;;;;;;1.70;1.60;;;17.70;53.80;;;;;;10454381;28;20232;-69
2023/08/29 18:27:44;;;;;;;1.97;1.87;;;17.70;53.50;;;;;;10451846;28;20931;-69
2023/08/29 18:32:49;;;;;;;1.57;1.43;;;17.70;53.50;;;;;;10456255;28;20224;-70
2023/08/29 18:37:52;;;;;;;1.67;1.57;;;17.70;53.80;;;;;;10449923;28;20236;-69
2023/08/29 18:42:57;;;;;;;2.20;2.00;;;17.70;53.70;;;;;;10454119;28;20726;-70
2023/08/29 18:48:03;;;;;;;2.50;1.63;;;17.70;54.50;;;;;;10451815;28;20685;-70
2023/08/29 18:53:06;;;;;;;1.80;1.70;;;17.80;53.70;;;;;;10464194;28;20243;-70
2023/08/29 18:58:09;;;;;;;1.80;1.70;;;17.80;53.20;;;;;;10463099;28;20237;-70
2023/08/29 19:03:14;;;;;;;2.03;1.87;;;17.80;53.30;;;;;;10466109;28;20814;-70
2023/08/29 19:08:18;;;;;;;1.77;1.67;;;17.70;53.50;;;;;;10461988;28;20871;-69
2023/08/29 19:13:21;;;;;;;1.80;1.70;;;17.70;53.50;;;;;;10459365;28;20232;-70
2023/08/29 19:18:25;;;;;;;2.03;1.93;;;17.70;53.60;;;;;;10460075;28;20324;-70
2023/08/29 19:23:29;;;;;;;2.23;2.10;;;17.60;53.80;;;;;;10460706;28;20224;-70
2023/08/29 19:28:32;;;;;;;2.47;2.37;;;17.60;53.70;;;;;;10462250;28;20238;-69
2023/08/29 19:33:36;;;;;;;2.33;2.23;;;17.60;53.90;;;;;;10463291;28;20224;-69
2023/08/29 19:38:40;;;;;;;2.20;2.10;;;17.60;54.20;;;;;;10461905;28;20235;-70
2023/08/29 19:43:44;;;;;;;2.03;1.93;;;17.60;54.10;;;;;;10454789;28;20235;-69
2023/08/29 19:48:48;;;;;;;2.47;2.37;;;17.70;54.20;;;;;;10458916;28;20884;-69
2023/08/29 19:53:52;;;;;;;3.20;2.50;;;17.80;54.30;;;;;;10458277;28;20323;-69
2023/08/29 19:58:55;;;;;;;2.93;2.73;;;17.70;54.00;;;;;;10456624;28;20581;-69
2023/08/29 20:04:00;;;;;;;2.70;2.50;;;17.80;54.00;;;;;;10463281;28;20342;-70
2023/08/29 20:09:05;;;;;;;2.77;2.57;;;17.80;54.30;;;;;;10463934;28;20229;-70
2023/08/29 20:14:08;;;;;;;3.00;2.80;;;17.80;54.30;;;;;;10461652;28;20240;-70
2023/08/29 20:19:12;;;;;;;3.13;2.97;;;17.80;54.30;;;;;;10461059;28;20634;-70
2023/08/29 20:24:16;;;;;;;4.77;3.40;;;17.80;54.50;;;;;;10463907;28;20351;-70
2023/08/29 20:29:19;;;;;;;3.03;2.83;;;17.80;54.40;;;;;;10457625;28;20236;-69
2023/08/29 20:34:23;;;;;;;3.40;3.20;;;17.80;54.40;;;;;;10461037;28;20237;-69
2023/08/29 20:39:27;;;;;;;3.57;3.27;;;17.80;54.50;;;;;;10462502;28;20758;-70
2023/08/29 20:44:30;;;;;;;4.40;4.00;;;17.80;54.30;;;;;;10456273;28;20242;-70
2023/08/29 20:49:34;;;;;;;3.80;3.40;;;17.80;54.30;;;;;;10456279;28;20305;-70
2023/08/29 20:54:38;;;;;;;4.30;4.00;;;17.80;54.70;;;;;;10458857;28;20749;-69
2023/08/29 20:59:41;;;;;;;4.30;3.90;;;17.80;54.60;;;;;;10458505;28;20251;-70
2023/08/29 21:04:45;;;;;;;3.50;3.30;;;17.80;54.70;;;;;;10455495;28;20251;-69
2023/08/29 21:09:49;;;;;;;4.03;3.83;;;17.90;54.90;;;;;;10456261;28;20220;-69
2023/08/29 21:14:52;;;;;;;4.37;4.07;;;17.90;54.70;;;;;;10457944;28;20230;-70
2023/08/29 21:19:57;;;;;;;3.97;3.67;;;17.90;54.40;;;;;;10454361;28;20229;-71
2023/08/29 21:25:00;;;;;;;3.90;3.70;;;17.90;54.50;;;;;;10457813;28;20275;-71
2023/08/29 21:30:04;;;;;;;3.57;3.27;;;18.00;54.50;;;;;;10456559;28;20225;-71
2023/08/29 21:35:09;;;;;;;3.63;3.43;;;17.90;54.30;;;;;;10450437;28;21617;-71
2023/08/29 21:40:12;;;;;;;3.90;3.60;;;17.90;54.60;;;;;;10458654;28;20936;-71
2023/08/29 21:45:18;;;;;;;3.37;3.07;;;18.00;54.30;;;;;;10451878;28;20282;-71
2023/08/29 21:50:22;;;;;;;3.73;3.40;;;18.00;54.30;;;;;;10451184;28;20256;-71
2023/08/29 21:55:25;;;;;;;3.57;3.37;;;18.00;54.00;;;;;;10452970;28;20232;-71
2023/08/29 22:00:29;;;;;;;3.53;3.23;;;18.00;53.90;;;;;;10453940;28;20607;-71
2023/08/29 22:05:35;;;;;;;3.30;3.00;;;18.00;54.00;;;;;;10451260;28;20684;-71
2023/08/29 22:10:39;;;;;;;3.00;2.80;;;18.00;54.10;;;;;;10453381;28;20767;-71
2023/08/29 22:15:42;;;;;;;3.10;2.90;;;18.00;54.10;;;;;;10456417;28;20240;-71
2023/08/29 22:20:46;;;;;;;3.00;2.80;;;18.00;54.00;;;;;;10458079;28;20228;-70
2023/08/29 22:25:50;;;;;;;3.10;2.80;;;18.00;53.90;;;;;;10455272;28;20257;-71
2023/08/29 22:30:53;;;;;;;3.43;2.83;;;18.10;53.90;;;;;;10462549;28;20760;-71
2023/08/29 22:35:58;;;;;;;2.50;2.40;;;18.00;53.30;;;;;;10454444;28;20729;-70
2023/08/29 22:41:07;;;;;;;4.30;2.50;;;18.00;53.30;;;;;;10453554;28;20264;-71
2023/08/29 22:46:17;;;;;;;2.53;2.43;;;18.00;53.40;;;;;;10454685;28;20225;-71
2023/08/29 22:51:22;;;;;;;2.60;2.40;;;18.00;53.20;;;;;;10462455;28;20225;-71
2023/08/29 22:56:25;;;;;;;2.97;2.77;;;18.00;53.40;;;;;;10459382;28;20238;-71
2023/08/29 23:01:29;;;;;;;2.70;2.50;;;18.00;53.40;;;;;;10456442;28;20307;-70
2023/08/29 23:06:34;;;;;;;2.70;2.50;;;18.00;53.20;;;;;;10452770;28;20224;-70
2023/08/29 23:11:38;;;;;;;2.50;2.40;;;18.00;53.10;;;;;;10454913;28;20232;-71
2023/08/29 23:16:42;;;;;;;3.20;2.90;;;18.00;53.20;;;;;;10455400;28;20224;-70
2023/08/29 23:21:46;;;;;;;2.90;2.70;;;18.00;53.20;;;;;;10462173;28;20232;-71
2023/08/29 23:26:49;;;;;;;3.20;3.00;;;18.00;53.00;;;;;;10458904;28;20236;-70
2023/08/29 23:31:52;;;;;;;2.93;2.80;;;18.00;52.90;;;;;;10450883;28;20646;-70
2023/08/29 23:36:57;;;;;;;3.40;3.17;;;18.00;52.90;;;;;;10463208;28;20228;-71
2023/08/29 23:42:00;;;;;;;3.93;3.63;;;18.00;52.90;;;;;;10460863;28;20228;-71
2023/08/29 23:47:03;;;;;;;3.90;3.60;;;18.00;52.90;;;;;;10460904;28;20907;-71
2023/08/29 23:52:08;;;;;;;3.50;3.30;;;18.00;52.80;;;;;;10461723;28;20251;-71
2023/08/29 23:57:11;;;;;;;3.70;3.50;;;17.90;52.80;;;;;;10466592;28;20234;-70
